Time;durP1;ratioP1;P1;durP2;ratioP2;P2;SDS_P1;SDS_P2;PMS_P1;PMS_P2;Temp;Humidity;BMP_temperature;BMP_pressure;BME280_temperature;BME280_humidity;BME280_pressure;Samples;Min_cycle;Max_cycle;Signal;HPM_P1;HPM_P2
2021/01/12 00:02:23;;;;;;;2.83;1.42;;;15.00;60.80;;;;;;5074628;28;20114;-55
2021/01/12 00:04:51;;;;;;;2.60;1.15;;;15.00;60.80;;;;;;5075385;28;20043;-55
2021/01/12 00:07:22;;;;;;;3.53;1.40;;;14.90;60.70;;;;;;5074378;28;20052;-55
2021/01/12 00:09:52;;;;;;;2.53;1.55;;;14.90;60.80;;;;;;5074706;28;20031;-55
2021/01/12 00:12:19;;;;;;;2.38;1.27;;;15.00;60.80;;;;;;5074381;28;20064;-55
2021/01/12 00:14:48;;;;;;;3.08;1.38;;;14.90;60.70;;;;;;5074466;28;20021;-55
2021/01/12 00:17:15;;;;;;;3.45;1.25;;;14.90;60.70;;;;;;5074207;28;20028;-55
2021/01/12 00:19:42;;;;;;;3.33;1.40;;;14.90;60.70;;;;;;5074856;28;20025;-55
2021/01/12 00:22:16;;;;;;;4.38;1.30;;;14.90;60.70;;;;;;5074212;28;20023;-55
2021/01/12 00:24:50;;;;;;;5.68;1.45;;;14.90;60.70;;;;;;5074631;28;20116;-55
2021/01/12 00:27:19;;;;;;;3.17;1.50;;;14.90;60.70;;;;;;5074223;28;20032;-55
2021/01/12 00:29:46;;;;;;;2.85;1.17;;;14.90;60.60;;;;;;5074057;28;20040;-55
2021/01/12 00:32:18;;;;;;;3.03;1.40;;;14.90;60.60;;;;;;5074487;28;20094;-55
2021/01/12 00:34:44;;;;;;;4.85;1.52;;;14.90;60.70;;;;;;5074397;28;20031;-55
2021/01/12 00:37:11;;;;;;;2.92;1.50;;;14.80;60.60;;;;;;5074453;28;20383;-55
2021/01/12 00:39:38;;;;;;;3.10;1.42;;;14.80;60.60;;;;;;5074040;28;20120;-55
2021/01/12 00:42:05;;;;;;;3.42;1.33;;;14.90;60.60;;;;;;5073711;28;20516;-55
2021/01/12 00:44:32;;;;;;;3.72;1.50;;;14.80;60.60;;;;;;5074036;28;20463;-55
2021/01/12 00:46:58;;;;;;;3.40;1.48;;;14.80;60.60;;;;;;5073974;28;20028;-55
2021/01/12 00:49:25;;;;;;;2.67;1.60;;;14.80;60.60;;;;;;5073893;28;20032;-55
2021/01/12 00:51:57;;;;;;;3.42;1.42;;;14.80;60.60;;;;;;5073869;28;20422;-55
2021/01/12 00:54:24;;;;;;;4.18;1.67;;;14.80;60.60;;;;;;5074013;28;20025;-55
2021/01/12 00:56:52;;;;;;;3.33;1.58;;;14.80;60.60;;;;;;5074223;28;20353;-55
2021/01/12 00:59:19;;;;;;;2.55;1.30;;;14.80;60.60;;;;;;5074573;28;20478;-55
2021/01/12 01:01:46;;;;;;;3.35;1.58;;;14.80;60.60;;;;;;5073792;28;20028;-55
2021/01/12 01:04:14;;;;;;;8.10;1.83;;;14.80;60.60;;;;;;5074269;28;20078;-55
2021/01/12 01:06:41;;;;;;;4.55;1.95;;;14.80;60.60;;;;;;5073929;28;20483;-55
2021/01/12 01:09:09;;;;;;;4.05;1.60;;;14.80;60.60;;;;;;5073778;28;20529;-55
2021/01/12 01:11:44;;;;;;;3.78;1.55;;;14.80;60.70;;;;;;5074291;28;20477;-55
2021/01/12 01:14:11;;;;;;;2.72;1.30;;;14.80;60.60;;;;;;5073613;28;20025;-55
2021/01/12 01:16:38;;;;;;;3.10;1.50;;;14.80;60.60;;;;;;5073476;28;20029;-55
2021/01/12 01:19:06;;;;;;;4.32;1.70;;;14.80;60.70;;;;;;5073722;28;20025;-55
2021/01/12 01:21:33;;;;;;;4.55;1.70;;;14.80;60.70;;;;;;5073839;28;20029;-55
2021/01/12 01:24:00;;;;;;;4.43;1.90;;;14.70;60.60;;;;;;5073508;28;20046;-55
2021/01/12 01:26:27;;;;;;;4.88;1.45;;;14.70;60.70;;;;;;5073182;28;20032;-55
2021/01/12 01:28:54;;;;;;;3.70;1.80;;;14.70;60.70;;;;;;5076034;28;20124;-55
2021/01/12 01:31:20;;;;;;;5.28;1.75;;;14.70;60.70;;;;;;5077644;28;20021;-55
2021/01/12 01:33:48;;;;;;;3.40;1.55;;;14.70;60.70;;;;;;5077490;28;20078;-54
2021/01/12 01:36:15;;;;;;;4.00;1.65;;;14.70;60.80;;;;;;5077534;28;20029;-55
2021/01/12 01:38:42;;;;;;;4.07;1.80;;;14.70;60.70;;;;;;5077753;28;20048;-55
2021/01/12 01:41:10;;;;;;;5.13;2.13;;;14.70;60.80;;;;;;5077332;28;20103;-55
2021/01/12 01:43:38;;;;;;;3.95;1.70;;;14.70;60.80;;;;;;5077268;28;20101;-55
2021/01/12 01:46:08;;;;;;;4.43;1.90;;;14.70;60.80;;;;;;5077112;28;20033;-55
2021/01/12 01:48:36;;;;;;;5.05;1.83;;;14.70;60.80;;;;;;5077044;28;20031;-55
2021/01/12 01:51:04;;;;;;;4.88;1.77;;;14.70;60.80;;;;;;5076969;28;20480;-55
2021/01/12 01:53:34;;;;;;;4.65;2.10;;;14.70;60.80;;;;;;5077673;28;20379;-55
2021/01/12 01:56:04;;;;;;;5.47;2.25;;;14.70;60.90;;;;;;5077011;28;20024;-54
2021/01/12 01:58:30;;;;;;;6.22;2.20;;;14.70;60.90;;;;;;5077471;28;20025;-54
2021/01/12 02:00:57;;;;;;;7.88;2.40;;;14.70;61.10;;;;;;5077011;28;20483;-55
2021/01/12 02:03:48;;;;;;;12.65;5.90;;;14.70;61.30;;;;;;5076984;28;20103;-55
2021/01/12 02:06:29;;;;;;;15.75;3.78;;;14.70;61.40;;;;;;5076602;28;20060;-55
2021/01/12 02:09:01;;;;;;;10.27;3.30;;;14.70;61.60;;;;;;5077067;28;20020;-55
2021/01/12 02:11:33;;;;;;;10.38;2.72;;;14.70;62.30;;;;;;5076883;28;20021;-55
2021/01/12 02:14:03;;;;;;;17.15;10.82;;;14.70;61.80;;;;;;5076561;28;20052;-55
2021/01/12 02:16:31;;;;;;;24.30;8.00;;;14.70;62.00;;;;;;5076866;28;20032;-55
2021/01/12 02:18:59;;;;;;;14.95;7.40;;;14.80;62.00;;;;;;5076575;28;20032;-54
2021/01/12 02:21:32;;;;;;;18.15;7.40;;;14.80;62.00;;;;;;5076849;28;20050;-55
2021/01/12 02:24:00;;;;;;;15.68;8.35;;;14.80;62.00;;;;;;5076637;28;20021;-55
2021/01/12 02:26:27;;;;;;;13.70;7.75;;;14.90;62.10;;;;;;5070455;28;20056;-55
2021/01/12 02:28:53;;;;;;;19.15;7.72;;;15.00;62.10;;;;;;5064590;28;20025;-55
2021/01/12 02:31:20;;;;;;;19.70;7.55;;;15.00;62.10;;;;;;5056474;28;20031;-55
2021/01/12 02:33:49;;;;;;;15.68;7.88;;;15.10;62.20;;;;;;5074412;28;20043;-54
2021/01/12 02:36:22;;;;;;;16.88;7.40;;;15.20;62.20;;;;;;5075986;28;20033;-55
2021/01/12 02:38:49;;;;;;;15.20;7.10;;;15.30;62.10;;;;;;5075928;28;20033;-55
2021/01/12 02:41:18;;;;;;;18.35;7.25;;;15.40;61.90;;;;;;5076307;28;20138;-54
2021/01/12 02:43:47;;;;;;;23.63;14.40;;;15.50;61.80;;;;;;5075334;28;20104;-54
2021/01/12 02:46:16;;;;;;;24.02;10.20;;;15.60;61.80;;;;;;5068199;28;20090;-55
2021/01/12 02:48:43;;;;;;;21.73;9.68;;;15.60;61.70;;;;;;5075521;28;20028;-55
2021/01/12 02:51:10;;;;;;;16.60;9.90;;;15.80;61.70;;;;;;5075991;28;20036;-55
2021/01/12 02:53:36;;;;;;;18.10;10.50;;;15.90;61.60;;;;;;5075917;28;20033;-55
2021/01/12 02:56:03;;;;;;;22.00;10.05;;;15.90;61.30;;;;;;5076515;28;20063;-55
2021/01/12 02:58:30;;;;;;;21.33;11.00;;;16.00;61.20;;;;;;5075945;28;20050;-57
2021/01/12 03:00:56;;;;;;;22.42;10.60;;;16.10;61.10;;;;;;5075227;28;20476;-55
2021/01/12 03:03:23;;;;;;;19.50;10.70;;;16.20;61.00;;;;;;5075492;28;20025;-55
2021/01/12 03:05:49;;;;;;;19.67;10.27;;;16.20;60.90;;;;;;5075542;28;20020;-55
2021/01/12 03:08:16;;;;;;;33.55;11.23;;;16.30;60.80;;;;;;5058346;28;20468;-55
2021/01/12 03:10:43;;;;;;;22.23;10.77;;;16.40;60.90;;;;;;5075290;28;20020;-55
2021/01/12 03:13:09;;;;;;;21.90;9.43;;;16.50;61.20;;;;;;5075945;28;20036;-54
2021/01/12 03:15:37;;;;;;;15.85;8.85;;;16.60;61.30;;;;;;5075303;28;20111;-54
2021/01/12 03:18:05;;;;;;;21.63;9.57;;;16.70;61.20;;;;;;5075229;28;20104;-55
2021/01/12 03:20:32;;;;;;;16.80;8.20;;;16.90;61.10;;;;;;5075930;28;20055;-54
2021/01/12 03:22:58;;;;;;;23.20;8.85;;;17.00;60.90;;;;;;5074857;28;20070;-54
2021/01/12 03:25:25;;;;;;;20.05;7.90;;;17.20;60.70;;;;;;5075160;28;20430;-55
2021/01/12 03:27:51;;;;;;;18.92;8.32;;;17.30;60.40;;;;;;5076007;28;20029;-55
2021/01/12 03:30:19;;;;;;;16.02;7.40;;;17.50;60.30;;;;;;5075763;28;20119;-55
2021/01/12 03:32:45;;;;;;;18.90;7.45;;;17.70;60.00;;;;;;5075475;28;20029;-55
2021/01/12 03:35:12;;;;;;;17.52;7.28;;;17.90;59.70;;;;;;5074973;28;20503;-55
2021/01/12 03:37:39;;;;;;;14.02;7.25;;;18.10;59.40;;;;;;5056509;28;20122;-55
2021/01/12 03:40:06;;;;;;;16.40;7.22;;;18.30;59.10;;;;;;5075128;28;20058;-54
2021/01/12 03:42:33;;;;;;;13.60;6.70;;;18.40;58.70;;;;;;5075342;28;20449;-54
2021/01/12 03:45:00;;;;;;;14.77;6.50;;;18.70;58.40;;;;;;5074459;28;20487;-54
2021/01/12 03:47:26;;;;;;;13.70;6.28;;;18.80;58.00;;;;;;5075019;28;20032;-54
2021/01/12 03:49:54;;;;;;;16.38;5.75;;;19.00;58.30;;;;;;5074363;28;20107;-55
2021/01/12 03:52:20;;;;;;;15.38;5.75;;;19.20;57.30;;;;;;5074291;28;20089;-55
2021/01/12 03:54:47;;;;;;;11.70;5.53;;;19.40;57.00;;;;;;5074099;28;20043;-55
2021/01/12 03:57:13;;;;;;;11.70;6.43;;;19.60;56.50;;;;;;5070282;28;20074;-54
2021/01/12 03:59:40;;;;;;;11.10;5.47;;;19.80;56.20;;;;;;5070348;28;20057;-55
2021/01/12 04:02:07;;;;;;;11.68;5.25;;;19.90;55.90;;;;;;5072006;28;20397;-54
2021/01/12 04:04:33;;;;;;;26.30;8.82;;;20.10;55.60;;;;;;5073721;28;20039;-55
2021/01/12 04:07:00;;;;;;;27.38;8.55;;;20.20;55.30;;;;;;5073891;28;20044;-55
2021/01/12 04:09:26;;;;;;;19.23;7.32;;;20.30;55.00;;;;;;5074330;28;20051;-55
2021/01/12 04:11:53;;;;;;;16.88;7.97;;;20.50;54.80;;;;;;5074093;28;20048;-54
2021/01/12 04:14:20;;;;;;;13.40;7.50;;;20.60;54.50;;;;;;5074757;28;20117;-55
2021/01/12 04:16:46;;;;;;;24.75;7.25;;;20.60;54.30;;;;;;5074706;28;20043;-55
2021/01/12 04:19:13;;;;;;;15.57;6.68;;;20.80;54.20;;;;;;5074418;28;20017;-55
2021/01/12 04:21:39;;;;;;;20.30;6.82;;;20.90;54.10;;;;;;5066356;28;20543;-55
2021/01/12 04:24:06;;;;;;;14.77;6.57;;;21.10;53.80;;;;;;5074241;28;20103;-56
2021/01/12 04:26:33;;;;;;;16.35;6.32;;;21.30;53.70;;;;;;5073915;28;20068;-56
2021/01/12 04:28:59;;;;;;;17.90;6.65;;;21.50;53.40;;;;;;5074226;28;20032;-55
2021/01/12 04:31:26;;;;;;;13.95;6.78;;;21.70;53.30;;;;;;5073721;28;20141;-54
2021/01/12 04:33:52;;;;;;;11.45;6.10;;;22.00;53.50;;;;;;5063014;28;20028;-55
2021/01/12 04:36:19;;;;;;;15.85;6.80;;;22.20;52.70;;;;;;5073875;28;20025;-55
2021/01/12 04:38:46;;;;;;;14.60;5.80;;;22.40;52.20;;;;;;5074289;28;20486;-55
2021/01/12 04:41:12;;;;;;;13.40;5.93;;;22.70;51.90;;;;;;5074062;28;20027;-55
2021/01/12 04:43:39;;;;;;;8.90;5.30;;;22.90;51.50;;;;;;5074007;28;20025;-55
2021/01/12 04:46:05;;;;;;;11.82;5.13;;;23.20;51.10;;;;;;5073902;28;20029;-55
2021/01/12 04:48:32;;;;;;;11.05;5.80;;;23.40;50.70;;;;;;5073938;28;20024;-55
2021/01/12 04:51:08;;;;;;;9.65;4.65;;;23.70;50.20;;;;;;5073916;28;20033;-55
2021/01/12 04:53:46;;;;;;;9.40;4.95;;;23.90;49.90;;;;;;5073501;28;20017;-55
2021/01/12 04:56:23;;;;;;;10.70;4.95;;;24.20;49.40;;;;;;5073931;28;20123;-55
2021/01/12 04:58:52;;;;;;;14.75;5.20;;;24.40;49.10;;;;;;5073958;28;20064;-55
2021/01/12 05:01:21;;;;;;;10.02;4.72;;;24.60;48.60;;;;;;5074172;28;20021;-56
2021/01/12 05:03:49;;;;;;;11.40;4.93;;;24.80;48.20;;;;;;5073304;28;20103;-55
2021/01/12 05:06:17;;;;;;;10.77;4.50;;;25.00;47.80;;;;;;5073603;28;20458;-55
2021/01/12 05:08:45;;;;;;;10.98;4.93;;;25.20;47.50;;;;;;5073424;28;20089;-55
2021/01/12 05:11:15;;;;;;;10.15;4.82;;;25.40;47.20;;;;;;5073758;28;20110;-55
2021/01/12 05:13:46;;;;;;;10.23;4.63;;;25.50;47.00;;;;;;5073509;28;20025;-55
2021/01/12 05:16:12;;;;;;;10.13;4.63;;;25.60;46.70;;;;;;5073692;28;20476;-56
2021/01/12 05:18:41;;;;;;;9.52;4.80;;;25.70;46.50;;;;;;5073695;28;20095;-56
2021/01/12 05:21:11;;;;;;;8.50;4.05;;;25.70;46.30;;;;;;5065924;28;20167;-55
2021/01/12 05:24:00;;;;;;;7.97;4.20;;;25.80;46.10;;;;;;5070061;28;20029;-56
2021/01/12 05:26:32;;;;;;;6.53;3.50;;;25.90;46.00;;;;;;5073835;28;20036;-56
2021/01/12 05:29:00;;;;;;;10.98;4.32;;;25.90;45.70;;;;;;5073635;28;20020;-58
2021/01/12 05:31:28;;;;;;;10.80;4.43;;;26.00;45.60;;;;;;5073273;28;20032;-58
2021/01/12 05:33:56;;;;;;;8.73;4.57;;;26.00;45.60;;;;;;5073038;28;20111;-59
2021/01/12 05:36:23;;;;;;;9.73;4.32;;;25.90;45.50;;;;;;5073427;28;20464;-58
2021/01/12 05:38:50;;;;;;;7.07;3.95;;;25.90;45.30;;;;;;5072038;28;20468;-56
2021/01/12 05:41:17;;;;;;;12.52;4.72;;;25.80;45.30;;;;;;5073561;28;20039;-55
2021/01/12 05:43:46;;;;;;;14.57;4.95;;;25.90;45.30;;;;;;5071477;28;20021;-55
2021/01/12 05:46:15;;;;;;;10.25;4.40;;;25.80;45.20;;;;;;5073473;28;20044;-55
2021/01/12 05:48:43;;;;;;;13.88;4.65;;;25.70;45.20;;;;;;5072793;28;20021;-56
2021/01/12 05:51:13;;;;;;;12.70;4.70;;;25.70;45.20;;;;;;5073303;28;20472;-55
2021/01/12 05:53:46;;;;;;;14.65;4.57;;;25.60;45.30;;;;;;5072862;28;20025;-55
2021/01/12 05:56:18;;;;;;;9.82;4.55;;;25.50;45.30;;;;;;5073229;28;20082;-56
2021/01/12 05:58:49;;;;;;;16.38;4.50;;;25.50;45.40;;;;;;5072685;28;20447;-55
2021/01/12 06:01:24;;;;;;;9.00;4.07;;;25.40;45.30;;;;;;5073382;28;20031;-56
2021/01/12 06:03:52;;;;;;;14.00;4.43;;;25.30;45.40;;;;;;5073870;28;20453;-56
2021/01/12 06:06:19;;;;;;;14.13;4.35;;;25.20;45.40;;;;;;5073078;28;20056;-55
2021/01/12 06:08:50;;;;;;;10.27;4.35;;;25.20;45.50;;;;;;5072677;28;20116;-56
2021/01/12 06:11:19;;;;;;;12.57;3.80;;;25.10;45.50;;;;;;5073242;28;20021;-56
2021/01/12 06:13:54;;;;;;;12.20;4.60;;;25.10;45.70;;;;;;5073632;28;20052;-56
2021/01/12 06:16:24;;;;;;;10.70;3.60;;;25.00;45.70;;;;;;5076533;28;20037;-56
2021/01/12 06:19:17;;;;;;;8.77;3.72;;;24.90;45.70;;;;;;5076093;28;20021;-55
2021/01/12 06:21:56;;;;;;;10.98;4.13;;;24.80;45.90;;;;;;5065419;28;20494;-56
2021/01/12 06:24:38;;;;;;;11.63;4.03;;;24.70;45.90;;;;;;5077241;28;20024;-56
2021/01/12 06:27:15;;;;;;;8.43;3.50;;;24.60;45.90;;;;;;5076487;28;20109;-54
2021/01/12 06:29:49;;;;;;;7.90;3.65;;;24.60;46.10;;;;;;5076585;28;20021;-55
2021/01/12 06:32:17;;;;;;;10.38;3.92;;;24.50;46.20;;;;;;5075438;28;20035;-56
2021/01/12 06:34:44;;;;;;;16.65;4.47;;;24.40;46.20;;;;;;5075275;28;20484;-56
2021/01/12 06:37:12;;;;;;;10.45;4.13;;;24.30;46.30;;;;;;5057189;28;20384;-56
2021/01/12 06:39:45;;;;;;;9.50;3.72;;;24.20;46.40;;;;;;5075863;28;20028;-55
2021/01/12 06:42:14;;;;;;;9.05;3.85;;;24.20;46.60;;;;;;5075642;28;20039;-56
2021/01/12 06:44:41;;;;;;;11.95;3.95;;;24.10;46.60;;;;;;5075802;28;20052;-55
2021/01/12 06:47:10;;;;;;;12.43;3.92;;;24.00;46.70;;;;;;5075063;28;20021;-55
2021/01/12 06:49:38;;;;;;;14.20;4.10;;;23.90;46.80;;;;;;5076136;28;20101;-56
2021/01/12 06:52:07;;;;;;;9.93;3.53;;;23.90;47.00;;;;;;5075797;28;20056;-56
2021/01/12 06:54:42;;;;;;;10.30;3.72;;;23.80;47.00;;;;;;5075053;28;20062;-55
2021/01/12 06:57:16;;;;;;;13.60;3.83;;;23.70;47.10;;;;;;5075610;28;20043;-55
2021/01/12 06:59:54;;;;;;;8.90;3.85;;;23.60;47.20;;;;;;5076073;28;20089;-56
2021/01/12 07:02:32;;;;;;;8.02;3.33;;;23.60;47.40;;;;;;5075385;28;20025;-54
2021/01/12 07:05:18;;;;;;;8.52;3.75;;;23.50;47.50;;;;;;5075408;28;20491;-55
2021/01/12 07:07:49;;;;;;;9.55;3.47;;;23.40;47.50;;;;;;5076037;28;20044;-56
2021/01/12 07:10:21;;;;;;;7.78;3.50;;;23.30;47.70;;;;;;5075641;28;20078;-55
2021/01/12 07:12:49;;;;;;;14.88;3.95;;;23.20;47.80;;;;;;5074954;28;20024;-55
2021/01/12 17:06:17;;;;;;;21.95;8.40;;;16.70;67.60;;;;;;5131527;27;20419;-55
2021/01/12 17:08:46;;;;;;;24.42;7.93;;;17.90;66.10;;;;;;5111193;28;20028;-54
2021/01/12 17:11:15;;;;;;;15.85;7.93;;;18.10;65.50;;;;;;5109424;28;20026;-54
2021/01/12 17:13:42;;;;;;;16.58;6.95;;;18.40;65.00;;;;;;5110050;28;20024;-54
2021/01/12 17:16:09;;;;;;;20.55;7.07;;;18.60;64.50;;;;;;5094648;28;20032;-53
2021/01/12 17:18:46;;;;;;;14.30;6.28;;;18.80;63.80;;;;;;5090360;28;20070;-54
2021/01/12 17:21:14;;;;;;;14.98;6.18;;;19.10;63.30;;;;;;5108382;28;20038;-54
2021/01/12 17:23:50;;;;;;;17.90;6.38;;;19.30;62.60;;;;;;5110635;28;20024;-54
2021/01/12 17:26:20;;;;;;;13.90;5.80;;;19.60;62.20;;;;;;5110292;28;20024;-54
2021/01/12 17:28:54;;;;;;;15.95;5.80;;;19.90;61.70;;;;;;5110166;28;20354;-54
2021/01/12 17:31:25;;;;;;;13.57;5.78;;;20.10;61.10;;;;;;5110479;28;20544;-54
2021/01/12 17:33:52;;;;;;;16.73;5.47;;;20.30;60.50;;;;;;5110665;28;20119;-54
2021/01/12 17:36:18;;;;;;;9.38;5.47;;;20.50;60.10;;;;;;5110820;28;20089;-54
2021/01/12 17:38:48;;;;;;;14.60;6.22;;;20.80;59.70;;;;;;5110355;28;20027;-54
2021/01/12 17:41:18;;;;;;;13.93;5.05;;;20.90;59.20;;;;;;5110982;28;20048;-54
2021/01/12 17:43:45;;;;;;;12.88;4.97;;;21.10;58.60;;;;;;5092691;28;20126;-55
2021/01/12 17:46:12;;;;;;;10.75;5.28;;;21.30;58.30;;;;;;5110252;28;20060;-54
2021/01/12 17:48:39;;;;;;;15.63;5.05;;;21.40;57.80;;;;;;5110423;28;20027;-55
2021/01/12 17:51:05;;;;;;;10.07;4.40;;;21.60;57.40;;;;;;5110091;28;20027;-54
2021/01/12 17:53:38;;;;;;;10.15;4.90;;;21.70;57.10;;;;;;5109550;28;20430;-55
2021/01/12 17:56:09;;;;;;;12.98;4.30;;;21.90;56.60;;;;;;5109849;28;20502;-55
2021/01/12 17:58:39;;;;;;;14.83;4.97;;;22.00;56.30;;;;;;5110312;28;20028;-55
2021/01/12 18:01:06;;;;;;;11.32;4.90;;;22.10;56.00;;;;;;5110686;28;20039;-55
2021/01/12 18:03:33;;;;;;;10.05;4.53;;;22.20;55.70;;;;;;5109868;28;20024;-54
2021/01/12 18:06:03;;;;;;;15.57;4.30;;;22.30;55.50;;;;;;5103150;28;20044;-53
2021/01/12 18:08:32;;;;;;;10.05;4.20;;;22.40;55.10;;;;;;5096077;28;20410;-54
2021/01/12 18:11:02;;;;;;;12.98;4.65;;;22.50;55.00;;;;;;5096946;28;20020;-55
2021/01/12 18:13:34;;;;;;;13.93;4.70;;;22.50;54.80;;;;;;5096367;28;20084;-55
2021/01/12 18:16:01;;;;;;;12.25;4.57;;;22.60;54.60;;;;;;5096609;28;20510;-54
2021/01/12 18:18:27;;;;;;;14.50;4.40;;;22.60;54.50;;;;;;5096374;28;20076;-54
2021/01/12 18:20:54;;;;;;;16.90;4.78;;;22.60;54.30;;;;;;5096248;28;20024;-54
2021/01/12 18:23:26;;;;;;;16.38;4.68;;;22.60;54.00;;;;;;5096057;28;20027;-54
2021/01/12 18:25:57;;;;;;;16.05;5.00;;;22.70;54.00;;;;;;5095443;28;20461;-54
2021/01/12 18:28:32;;;;;;;9.13;3.83;;;22.70;53.80;;;;;;5096624;28;20103;-54
2021/01/12 18:31:02;;;;;;;13.73;4.13;;;22.70;53.70;;;;;;5095394;28;20496;-54
2021/01/12 18:33:29;;;;;;;10.80;4.15;;;22.70;53.70;;;;;;5096153;28;20487;-54
2021/01/12 18:35:56;;;;;;;10.93;3.65;;;22.70;53.60;;;;;;5096250;28;20032;-54
2021/01/12 18:38:24;;;;;;;7.55;3.60;;;22.70;53.50;;;;;;5096000;28;20051;-54
2021/01/12 18:40:53;;;;;;;14.13;3.97;;;22.70;53.50;;;;;;5095764;28;20389;-54
2021/01/12 18:43:20;;;;;;;15.27;4.82;;;22.80;53.40;;;;;;5095767;28;20110;-54
2021/01/12 18:45:47;;;;;;;11.63;4.05;;;22.70;53.30;;;;;;5096064;28;20070;-54
2021/01/12 18:48:14;;;;;;;12.82;3.92;;;22.70;53.20;;;;;;5095790;28;20024;-53
2021/01/12 18:50:40;;;;;;;11.75;4.20;;;22.70;53.20;;;;;;5095683;28;20389;-54
2021/01/12 18:53:08;;;;;;;11.05;3.92;;;22.80;53.20;;;;;;5095693;28;20031;-53
2021/01/12 18:55:38;;;;;;;11.93;3.45;;;22.80;53.20;;;;;;5078101;28;20484;-54
2021/01/12 18:58:05;;;;;;;14.07;4.07;;;22.80;53.10;;;;;;5095453;28;20028;-54
2021/01/12 19:00:32;;;;;;;11.18;4.18;;;22.80;53.10;;;;;;5095547;28;20020;-54
2021/01/12 19:02:59;;;;;;;11.55;4.07;;;22.70;53.10;;;;;;5095353;28;20025;-53
2021/01/12 19:05:26;;;;;;;9.80;3.92;;;22.70;52.90;;;;;;5095424;28;20044;-54
2021/01/12 19:07:56;;;;;;;9.20;3.60;;;22.70;53.00;;;;;;5095672;28;20024;-53
2021/01/12 19:10:23;;;;;;;13.10;4.57;;;22.70;52.90;;;;;;5095938;28;20020;-55
2021/01/12 19:12:50;;;;;;;11.13;3.90;;;22.70;52.90;;;;;;5094654;28;20028;-54
2021/01/12 19:15:18;;;;;;;11.70;4.10;;;22.70;52.90;;;;;;5095264;28;20039;-55
2021/01/12 19:17:46;;;;;;;11.63;3.30;;;22.70;52.90;;;;;;5094689;28;20035;-56
2021/01/12 19:20:13;;;;;;;15.27;4.28;;;22.70;52.90;;;;;;5094626;28;20055;-55
2021/01/12 19:22:40;;;;;;;10.10;4.18;;;22.70;52.90;;;;;;5094999;28;20027;-56
2021/01/12 19:25:07;;;;;;;13.32;4.10;;;22.70;52.90;;;;;;5094142;28;20035;-55
2021/01/12 19:27:34;;;;;;;10.57;4.15;;;22.60;52.90;;;;;;5095082;28;20117;-55
2021/01/12 19:30:01;;;;;;;15.20;8.82;;;22.60;52.90;;;;;;5094363;28;20117;-56
2021/01/12 19:32:31;;;;;;;11.57;5.45;;;22.60;53.00;;;;;;5095039;28;20073;-58
2021/01/12 19:35:02;;;;;;;11.20;4.68;;;22.60;52.90;;;;;;5093442;28;20047;-56
2021/01/12 19:37:29;;;;;;;12.60;5.38;;;22.50;52.80;;;;;;5095154;28;20538;-58
2021/01/12 19:39:55;;;;;;;10.02;5.40;;;22.50;52.90;;;;;;5094837;28;20078;-58
2021/01/12 19:42:27;;;;;;;12.45;5.30;;;22.50;53.00;;;;;;5094630;28;20469;-58
2021/01/12 19:44:54;;;;;;;12.05;5.75;;;22.50;53.00;;;;;;5094875;28;20028;-58
2021/01/12 19:47:21;;;;;;;10.88;4.97;;;22.40;53.10;;;;;;5094723;28;20024;-59
2021/01/12 19:49:47;;;;;;;11.68;5.15;;;22.40;53.20;;;;;;5094985;28;20071;-57
2021/01/12 19:52:17;;;;;;;12.70;4.97;;;22.30;53.20;;;;;;5095080;28;20479;-57
2021/01/12 19:54:43;;;;;;;12.82;5.40;;;22.30;53.30;;;;;;5095389;28;20032;-58
2021/01/12 19:57:13;;;;;;;11.55;4.85;;;22.30;53.40;;;;;;5094977;28;20024;-58
2021/01/12 19:59:40;;;;;;;11.98;5.13;;;22.30;53.40;;;;;;5093572;28;20027;-58
2021/01/12 20:02:08;;;;;;;12.45;4.45;;;22.30;53.40;;;;;;5095373;28;20027;-58
2021/01/12 20:04:38;;;;;;;12.30;4.88;;;22.30;53.50;;;;;;5094797;28;20067;-57
2021/01/12 20:07:06;;;;;;;10.55;4.85;;;22.30;53.40;;;;;;5094845;28;20035;-58
2021/01/12 20:09:33;;;;;;;9.98;4.32;;;22.30;53.50;;;;;;5094353;28;20031;-58
2021/01/12 20:12:00;;;;;;;10.73;4.57;;;22.30;53.40;;;;;;5094355;28;20039;-58
2021/01/12 20:14:27;;;;;;;11.15;4.50;;;22.30;53.40;;;;;;5093975;28;20350;-59
2021/01/12 20:16:56;;;;;;;12.10;4.30;;;22.30;53.40;;;;;;5095063;28;20060;-59
2021/01/12 20:19:28;;;;;;;8.88;4.75;;;22.40;53.40;;;;;;5094579;28;20030;-59
2021/01/12 20:21:59;;;;;;;10.55;4.70;;;22.30;53.40;;;;;;5094122;28;20035;-55
2021/01/12 20:24:33;;;;;;;16.40;5.85;;;22.40;53.40;;;;;;5094436;28;20038;-56
2021/01/12 20:27:03;;;;;;;10.55;4.80;;;22.30;53.40;;;;;;5094428;28;20101;-56
2021/01/12 20:29:30;;;;;;;11.95;4.80;;;22.30;53.40;;;;;;5094136;28;20048;-57
2021/01/12 20:31:58;;;;;;;17.63;5.25;;;22.30;53.40;;;;;;5093982;28;20024;-56
2021/01/12 20:34:26;;;;;;;14.05;5.60;;;22.30;53.40;;;;;;5093809;28;20030;-57
2021/01/12 20:36:55;;;;;;;14.50;5.32;;;22.30;53.40;;;;;;5093585;28;20477;-56
2021/01/12 20:39:22;;;;;;;18.08;5.38;;;22.30;53.40;;;;;;5075854;28;20376;-56
2021/01/12 20:41:49;;;;;;;14.50;5.93;;;22.30;53.40;;;;;;5094028;28;20028;-55
2021/01/12 20:44:28;;;;;;;14.38;7.10;;;22.30;53.40;;;;;;5092318;28;20059;-55
2021/01/12 20:46:57;;;;;;;14.38;6.57;;;22.30;53.40;;;;;;5090466;28;20055;-56
2021/01/12 20:49:24;;;;;;;16.75;5.38;;;22.30;53.60;;;;;;5092178;28;20483;-56
2021/01/12 20:51:52;;;;;;;16.13;6.70;;;22.30;53.70;;;;;;5092375;28;20055;-55
2021/01/12 20:54:21;;;;;;;13.68;6.18;;;22.30;53.70;;;;;;5093339;28;20081;-55
2021/01/12 20:56:49;;;;;;;13.27;5.95;;;22.40;53.80;;;;;;5093259;28;20455;-55
2021/01/12 20:59:19;;;;;;;12.43;6.47;;;22.40;53.80;;;;;;5093485;28;20024;-56
2021/01/12 21:01:46;;;;;;;12.98;5.82;;;22.40;53.80;;;;;;5093780;28;20028;-56
2021/01/12 21:04:13;;;;;;;10.00;5.40;;;22.40;53.80;;;;;;5093349;28;20435;-56
2021/01/12 21:06:40;;;;;;;9.73;5.47;;;22.40;53.80;;;;;;5093683;28;20027;-57
2021/01/12 21:09:09;;;;;;;15.15;5.90;;;22.50;53.90;;;;;;5093447;28;20377;-56
2021/01/12 21:11:37;;;;;;;11.07;5.40;;;22.50;53.80;;;;;;5075581;28;20052;-56
2021/01/12 21:14:05;;;;;;;11.90;4.97;;;22.50;53.70;;;;;;5092651;28;20377;-55
2021/01/12 21:16:32;;;;;;;12.48;5.38;;;22.60;53.80;;;;;;5093576;28;20031;-56
2021/01/12 21:18:59;;;;;;;12.15;5.38;;;22.60;53.70;;;;;;5085643;28;20020;-55
2021/01/12 21:21:27;;;;;;;11.43;5.28;;;22.70;53.60;;;;;;5085745;28;20017;-55
2021/01/12 21:23:54;;;;;;;13.90;5.38;;;22.80;53.60;;;;;;5092894;28;20024;-55
2021/01/12 21:26:21;;;;;;;12.57;5.18;;;22.80;53.50;;;;;;5093212;28;20101;-55
2021/01/12 21:28:49;;;;;;;13.55;5.40;;;22.80;53.40;;;;;;5093257;28;20032;-55
2021/01/12 21:31:17;;;;;;;11.07;5.45;;;22.90;53.40;;;;;;5092243;28;20027;-55
2021/01/12 21:33:44;;;;;;;19.08;5.57;;;23.00;53.30;;;;;;5091689;28;20024;-55
2021/01/12 21:36:13;;;;;;;21.75;5.85;;;23.00;53.20;;;;;;5089323;28;20111;-55
2021/01/12 21:38:41;;;;;;;20.60;5.90;;;23.10;53.20;;;;;;5091565;28;20099;-56
2021/01/12 21:41:08;;;;;;;19.33;5.75;;;23.10;53.10;;;;;;5094389;28;20024;-56
2021/01/12 21:43:35;;;;;;;12.40;5.45;;;23.10;53.00;;;;;;5096050;28;20028;-55
2021/01/12 21:46:04;;;;;;;26.00;5.82;;;23.10;52.90;;;;;;5097248;28;20028;-55
2021/01/12 21:48:34;;;;;;;14.88;5.63;;;23.10;52.90;;;;;;5096984;28;20431;-56
2021/01/12 21:51:00;;;;;;;14.35;5.40;;;23.20;52.90;;;;;;5096698;28;20115;-55
2021/01/12 21:53:27;;;;;;;12.90;5.10;;;23.20;52.90;;;;;;5094741;28;20052;-54
2021/01/12 21:55:54;;;;;;;14.50;5.57;;;23.20;52.80;;;;;;5095185;28;20047;-54
2021/01/12 21:58:21;;;;;;;13.07;5.60;;;23.20;52.80;;;;;;5095150;28;20081;-56
2021/01/12 22:00:48;;;;;;;13.00;5.22;;;23.20;52.70;;;;;;5096166;28;20065;-55
2021/01/12 22:03:14;;;;;;;12.82;5.22;;;23.20;52.70;;;;;;5096627;28;20116;-57
2021/01/12 22:05:41;;;;;;;11.75;5.05;;;23.30;52.70;;;;;;5096099;28;20052;-55
2021/01/12 22:08:07;;;;;;;11.43;5.05;;;23.20;52.60;;;;;;5096825;28;20085;-55
2021/01/12 22:10:34;;;;;;;13.98;5.32;;;23.30;52.70;;;;;;5096956;28;20530;-55
2021/01/12 22:13:01;;;;;;;12.07;5.05;;;23.30;52.60;;;;;;5096617;28;20024;-55
2021/01/12 22:15:27;;;;;;;13.95;4.72;;;23.20;52.50;;;;;;5096688;28;20032;-56
2021/01/12 22:17:54;;;;;;;10.70;4.63;;;23.30;52.60;;;;;;5096503;28;20036;-55
2021/01/12 22:20:22;;;;;;;10.57;5.22;;;23.20;52.50;;;;;;5095872;28;20028;-55
2021/01/12 22:22:56;;;;;;;15.10;4.97;;;23.20;52.60;;;;;;5095996;28;20111;-56
2021/01/12 22:25:26;;;;;;;16.00;5.30;;;23.20;52.60;;;;;;5096659;28;20097;-55
2021/01/12 22:27:53;;;;;;;13.52;5.00;;;23.20;52.60;;;;;;5096275;28;20064;-55
2021/01/12 22:30:20;;;;;;;9.98;4.80;;;23.20;52.60;;;;;;5096617;28;20532;-56
2021/01/12 22:32:46;;;;;;;12.98;4.95;;;23.10;52.60;;;;;;5095652;28;20020;-54
2021/01/12 22:35:14;;;;;;;16.95;5.22;;;23.20;52.70;;;;;;5096143;28;20034;-54
2021/01/12 22:37:42;;;;;;;18.17;5.28;;;23.10;52.60;;;;;;5096122;28;20060;-55